createdAt,value
2019-04-30T00:01:33.563Z,6.87
2019-04-30T00:04:05.629Z,7.40
2019-04-30T00:06:39.313Z,6.85
2019-04-30T00:09:09.817Z,6.85
2019-04-30T00:11:37.407Z,7.72
2019-04-30T00:14:05.775Z,7.67
2019-04-30T00:16:36.339Z,8.03
2019-04-30T00:19:06.170Z,6.95
2019-04-30T00:21:36.102Z,6.60
2019-04-30T00:24:06.218Z,5.90
2019-04-30T00:26:35.441Z,7.33
2019-04-30T00:29:05.146Z,6.87
2019-04-30T00:31:34.927Z,6.58
2019-04-30T00:34:05.039Z,7.03
2019-04-30T00:36:34.304Z,7.00
2019-04-30T00:39:07.184Z,7.72
2019-04-30T00:41:39.936Z,7.30
2019-04-30T00:44:07.156Z,8.10
2019-04-30T00:46:36.393Z,7.33
2019-04-30T00:49:09.823Z,6.95
2019-04-30T00:51:35.564Z,7.40
2019-04-30T00:54:05.663Z,7.58
2019-04-30T00:56:35.537Z,7.28
2019-04-30T00:59:07.029Z,7.12
2019-04-30T01:01:43.494Z,7.30
2019-04-30T01:04:15.090Z,7.10
2019-04-30T01:06:46.259Z,6.83
2019-04-30T01:09:15.582Z,7.25
2019-04-30T01:11:47.912Z,7.33
2019-04-30T01:14:14.164Z,7.83
2019-04-30T01:16:42.606Z,7.25
2019-04-30T01:19:26.591Z,7.97
2019-04-30T01:21:46.920Z,7.92
2019-04-30T01:24:12.587Z,8.30
2019-04-30T01:26:41.063Z,7.20
2019-04-30T01:29:10.255Z,7.65
2019-04-30T01:31:40.811Z,5.87
2019-04-30T01:34:13.792Z,6.58
2019-04-30T01:36:43.437Z,6.58
2019-04-30T01:39:12.983Z,6.75
2019-04-30T01:41:41.641Z,7.10
2019-04-30T01:44:11.900Z,7.80
2019-04-30T01:46:43.250Z,8.50
2019-04-30T01:49:10.323Z,7.45
2019-04-30T01:51:38.839Z,8.70
2019-04-30T01:54:09.260Z,8.25
2019-04-30T01:56:49.883Z,8.48
2019-04-30T01:59:19.971Z,8.75
2019-04-30T02:01:50.063Z,7.75
2019-04-30T02:04:19.576Z,8.50
2019-04-30T02:06:49.433Z,8.38
2019-04-30T02:09:18.834Z,8.40
2019-04-30T02:11:48.829Z,8.58
2019-04-30T02:14:18.912Z,8.65
2019-04-30T02:16:49.315Z,8.45
2019-04-30T02:19:18.856Z,8.50
2019-04-30T02:21:48.786Z,8.70
2019-04-30T02:24:19.210Z,7.70
2019-04-30T02:26:48.506Z,9.73
2019-04-30T02:29:19.002Z,7.35
2019-04-30T02:31:47.262Z,8.13
2019-04-30T02:34:21.714Z,9.15
2019-04-30T02:36:52.136Z,7.83
2019-04-30T02:39:21.481Z,9.08
2019-04-30T02:41:50.872Z,7.47
2019-04-30T02:44:20.624Z,7.72
2019-04-30T02:46:52.941Z,7.83
2019-04-30T02:49:25.801Z,8.60
2019-04-30T02:51:59.390Z,8.20
2019-04-30T02:54:30.276Z,8.15
2019-04-30T02:57:00.377Z,8.83
2019-04-30T02:59:30.096Z,8.00
2019-04-30T03:01:59.741Z,8.15
2019-04-30T03:04:29.372Z,7.70
2019-04-30T03:06:59.779Z,8.03
2019-04-30T03:09:29.713Z,8.78
2019-04-30T03:12:00.299Z,7.10
2019-04-30T03:14:30.123Z,8.23
2019-04-30T03:17:10.580Z,8.93
2019-04-30T03:19:40.621Z,9.15
2019-04-30T03:22:20.124Z,8.83
2019-04-30T03:24:50.160Z,8.43
2019-04-30T03:27:20.472Z,8.43
2019-04-30T03:29:50.280Z,7.95
2019-04-30T03:32:22.406Z,7.53
2019-04-30T03:34:52.215Z,8.53
2019-04-30T03:37:23.425Z,8.80
2019-04-30T03:39:51.837Z,10.15
2019-04-30T03:42:20.278Z,9.70
2019-04-30T03:44:49.558Z,10.13
2019-04-30T03:47:20.251Z,9.83
2019-04-30T03:49:49.854Z,10.40
2019-04-30T03:52:19.680Z,10.05
2019-04-30T03:54:52.137Z,10.20
2019-04-30T03:57:20.787Z,10.40
2019-04-30T03:59:49.981Z,10.25
2019-04-30T04:02:30.065Z,10.98
2019-04-30T04:05:01.147Z,10.32
2019-04-30T04:07:52.564Z,9.87
2019-04-30T04:10:35.802Z,9.38
2019-04-30T04:13:04.188Z,9.90
2019-04-30T04:15:32.632Z,9.73
2019-04-30T04:18:01.086Z,9.20
2019-04-30T04:20:29.963Z,10.05
2019-04-30T04:22:59.860Z,10.63
2019-04-30T04:25:29.969Z,13.20
2019-04-30T04:28:00.333Z,11.73
2019-04-30T04:30:30.053Z,11.88
2019-04-30T04:32:59.962Z,11.85
2019-04-30T04:35:29.831Z,11.63
2019-04-30T04:38:00.383Z,10.65
2019-04-30T04:40:30.215Z,11.03
2019-04-30T04:43:00.279Z,12.30
2019-04-30T04:45:30.486Z,12.82
2019-04-30T04:48:00.065Z,13.60
2019-04-30T04:50:31.588Z,15.15
2019-04-30T04:52:59.996Z,16.02
2019-04-30T04:55:30.818Z,15.45
2019-04-30T04:57:59.874Z,16.30
2019-04-30T05:00:32.665Z,19.57
2019-04-30T05:03:05.145Z,19.90
2019-04-30T05:08:01.170Z,22.22
2019-04-30T05:10:29.606Z,18.92
2019-04-30T05:12:59.238Z,19.85
2019-04-30T05:15:29.481Z,18.95
2019-04-30T05:17:59.193Z,19.30
2019-04-30T05:20:29.191Z,21.45
2019-04-30T05:22:58.526Z,19.05
2019-04-30T05:25:27.037Z,18.98
2019-04-30T05:27:55.519Z,20.90
2019-04-30T05:30:23.918Z,19.65
2019-04-30T05:32:52.365Z,19.20
2019-04-30T05:35:20.868Z,20.85
2019-04-30T05:37:49.591Z,20.17
2019-04-30T05:40:18.876Z,18.80
2019-04-30T05:42:49.453Z,20.92
2019-04-30T05:45:19.245Z,20.72
2019-04-30T05:47:50.227Z,19.55
2019-04-30T05:50:19.802Z,19.32
2019-04-30T05:52:49.426Z,19.73
2019-04-30T05:55:19.727Z,18.17
2019-04-30T05:57:56.077Z,18.07
2019-04-30T06:00:19.708Z,20.70
2019-04-30T06:02:49.713Z,18.82
2019-04-30T06:05:18.887Z,20.17
2019-04-30T06:07:51.678Z,18.30
2019-04-30T06:10:19.680Z,18.85
2019-04-30T06:12:52.429Z,18.67
2019-04-30T06:15:25.392Z,17.12
2019-04-30T06:18:00.351Z,16.48
2019-04-30T06:20:24.723Z,17.32
2019-04-30T06:22:53.458Z,18.85
2019-04-30T06:25:31.537Z,16.15
2019-04-30T06:27:56.306Z,16.77
2019-04-30T06:30:25.738Z,16.70
2019-04-30T06:32:54.994Z,16.73
2019-04-30T06:35:24.066Z,18.07
2019-04-30T06:37:52.476Z,15.77
2019-04-30T06:40:21.070Z,17.02
2019-04-30T06:42:49.705Z,15.57
2019-04-30T06:45:19.127Z,15.15
2019-04-30T06:47:49.023Z,14.23
2019-04-30T06:50:19.372Z,13.80
2019-04-30T06:52:56.794Z,13.43
2019-04-30T06:55:21.870Z,12.85
2019-04-30T06:57:50.358Z,13.32
2019-04-30T07:00:20.667Z,12.43
2019-04-30T07:02:49.522Z,12.53
2019-04-30T07:05:18.598Z,11.73
2019-04-30T07:08:09.212Z,11.93
2019-04-30T07:10:37.441Z,13.05
2019-04-30T07:13:08.793Z,12.37
2019-04-30T07:15:38.995Z,11.55
2019-04-30T07:18:09.071Z,11.95
2019-04-30T07:20:38.748Z,12.35
2019-04-30T07:23:09.186Z,11.90
2019-04-30T07:25:39.055Z,12.00
2019-04-30T07:28:09.046Z,10.55
2019-04-30T07:30:39.479Z,10.63
2019-04-30T07:33:09.523Z,11.68
2019-04-30T07:35:39.853Z,12.20
2019-04-30T07:38:09.361Z,12.03
2019-04-30T07:40:39.057Z,11.95
2019-04-30T07:43:09.160Z,11.57
2019-04-30T07:45:39.231Z,11.63
2019-04-30T07:48:09.267Z,12.00
2019-04-30T07:50:40.480Z,11.95
2019-04-30T07:53:11.316Z,11.78
2019-04-30T07:55:39.337Z,12.50
2019-04-30T07:58:09.019Z,11.43
2019-04-30T08:00:40.341Z,12.15
2019-04-30T08:03:10.741Z,11.93
2019-04-30T08:05:41.238Z,12.28
2019-04-30T08:08:20.826Z,11.93
2019-04-30T08:10:39.791Z,12.20
2019-04-30T08:13:13.643Z,11.63
2019-04-30T08:15:42.161Z,11.57
2019-04-30T08:18:08.750Z,11.97
2019-04-30T08:20:39.213Z,12.28
2019-04-30T08:23:20.338Z,12.63
2019-04-30T08:25:39.075Z,12.70
2019-04-30T08:28:09.110Z,12.60
2019-04-30T08:30:39.143Z,13.05
2019-04-30T08:33:09.444Z,12.70
2019-04-30T08:35:39.768Z,12.93
2019-04-30T08:38:10.587Z,13.55
2019-04-30T08:40:47.253Z,13.28
2019-04-30T08:43:09.515Z,13.83
2019-04-30T08:45:38.543Z,13.60
2019-04-30T08:48:09.039Z,13.80
2019-04-30T08:50:39.302Z,15.30
2019-04-30T08:53:10.390Z,15.72
2019-04-30T08:55:39.148Z,13.95
2019-04-30T08:58:12.431Z,14.90
2019-04-30T09:00:38.577Z,15.03
2019-04-30T09:03:09.362Z,14.47
2019-04-30T09:05:39.500Z,15.83
2019-04-30T09:08:09.672Z,14.55
2019-04-30T09:10:39.331Z,14.43
2019-04-30T09:13:09.158Z,14.93
2019-04-30T09:15:37.629Z,14.55
2019-04-30T09:18:10.252Z,15.68
2019-04-30T09:20:36.210Z,15.63
2019-04-30T09:23:04.695Z,15.63
2019-04-30T09:25:33.104Z,15.10
2019-04-30T09:28:04.293Z,15.63
2019-04-30T09:30:31.714Z,14.03
2019-04-30T09:33:03.524Z,15.43
2019-04-30T09:35:32.295Z,16.20
2019-04-30T09:38:01.992Z,15.28
2019-04-30T09:40:32.493Z,14.68
2019-04-30T09:43:00.723Z,16.10
2019-04-30T09:45:29.133Z,14.90
2019-04-30T09:47:59.244Z,14.63
2019-04-30T09:50:28.955Z,16.15
2019-04-30T09:52:59.836Z,15.58
2019-04-30T09:55:29.029Z,16.30
2019-04-30T09:57:58.900Z,14.43
2019-04-30T10:00:29.311Z,14.55
2019-04-30T10:02:59.905Z,14.73
2019-04-30T10:05:29.209Z,15.45
2019-04-30T10:07:59.418Z,16.20
2019-04-30T10:10:29.578Z,15.20
2019-04-30T10:12:59.363Z,15.65
2019-04-30T10:15:35.215Z,16.45
2019-04-30T10:18:03.759Z,14.53
2019-04-30T10:20:41.785Z,16.35
2019-04-30T10:23:12.902Z,14.33
2019-04-30T10:25:41.327Z,15.08
2019-04-30T10:28:14.052Z,15.28
2019-04-30T10:30:42.511Z,16.50
2019-04-30T10:33:10.918Z,15.98
2019-04-30T10:35:41.422Z,15.65
2019-04-30T10:38:10.013Z,15.48
2019-04-30T10:40:39.691Z,15.95
2019-04-30T10:43:08.860Z,15.18
2019-04-30T10:45:38.806Z,15.58
2019-04-30T10:48:07.509Z,15.13
2019-04-30T10:50:35.926Z,14.30
2019-04-30T10:53:04.395Z,15.35
2019-04-30T10:55:32.821Z,14.75
2019-04-30T10:58:01.224Z,15.70
2019-04-30T11:00:41.986Z,15.10
2019-04-30T11:03:19.123Z,14.47
2019-04-30T11:05:41.432Z,15.18
2019-04-30T11:08:10.001Z,15.98
2019-04-30T11:10:39.902Z,14.25
2019-04-30T11:13:12.424Z,15.53
2019-04-30T11:18:09.754Z,14.60
2019-04-30T11:20:39.724Z,14.53
2019-04-30T11:23:14.695Z,14.45
2019-04-30T11:25:41.199Z,14.23
2019-04-30T11:28:09.404Z,15.00
2019-04-30T11:30:39.207Z,13.90
2019-04-30T11:33:08.213Z,14.55
2019-04-30T11:35:36.853Z,14.83
2019-04-30T11:38:05.516Z,14.33
2019-04-30T11:40:37.416Z,14.05
2019-04-30T11:43:04.307Z,14.07
2019-04-30T11:45:53.883Z,13.80
2019-04-30T11:48:22.347Z,14.65
2019-04-30T11:50:50.845Z,13.43
2019-04-30T11:53:25.383Z,12.85
2019-04-30T11:55:49.639Z,14.20
2019-04-30T11:58:21.754Z,13.40
2019-04-30T12:00:49.474Z,13.20
2019-04-30T12:03:19.128Z,12.98
2019-04-30T12:05:50.238Z,14.13
2019-04-30T12:08:39.329Z,12.90
2019-04-30T12:11:09.365Z,11.90
2019-04-30T12:13:37.770Z,12.85
2019-04-30T12:16:06.318Z,12.85
2019-04-30T12:18:38.377Z,13.30
2019-04-30T12:21:09.210Z,12.58
2019-04-30T12:23:37.621Z,13.98
2019-04-30T12:26:06.050Z,14.40
2019-04-30T12:28:34.466Z,12.63
2019-04-30T12:31:05.605Z,13.93
2019-04-30T12:33:33.019Z,11.73
2019-04-30T12:36:01.647Z,13.38
2019-04-30T12:38:32.741Z,11.78
2019-04-30T12:41:01.198Z,10.68
2019-04-30T12:43:29.605Z,10.83
2019-04-30T12:46:04.895Z,10.85
2019-04-30T12:48:39.641Z,11.80
2019-04-30T12:51:09.896Z,11.35
2019-04-30T12:53:55.060Z,11.18
2019-04-30T12:56:27.143Z,10.63
2019-04-30T12:58:55.400Z,10.90
2019-04-30T13:01:31.781Z,10.47
2019-04-30T13:04:01.449Z,11.53
2019-04-30T13:06:30.109Z,11.67
2019-04-30T13:09:03.074Z,12.00
2019-04-30T13:11:36.552Z,11.28
2019-04-30T13:14:06.280Z,11.33
2019-04-30T13:16:35.146Z,10.55
2019-04-30T13:19:03.622Z,11.48
2019-04-30T13:21:32.033Z,11.38
2019-04-30T13:24:00.457Z,11.80
2019-04-30T13:26:28.878Z,11.33
2019-04-30T13:28:58.939Z,12.03
2019-04-30T13:31:29.410Z,11.35
2019-04-30T13:34:03.102Z,11.90
2019-04-30T13:36:31.563Z,10.73
2019-04-30T13:39:02.695Z,11.28
2019-04-30T13:41:43.044Z,10.67
2019-04-30T13:44:12.642Z,11.57
2019-04-30T13:46:42.161Z,12.63
2019-04-30T13:49:10.574Z,11.03
2019-04-30T13:51:38.998Z,11.43
2019-04-30T13:54:11.275Z,11.65
2019-04-30T13:56:39.833Z,11.73
2019-04-30T13:59:08.279Z,11.83
2019-04-30T14:01:38.946Z,12.37
2019-04-30T14:04:18.111Z,10.78
2019-04-30T14:07:08.561Z,11.35
2019-04-30T14:09:36.983Z,11.55
2019-04-30T14:12:05.633Z,11.65
2019-04-30T14:14:34.064Z,11.57
2019-04-30T14:17:03.889Z,11.73
2019-04-30T14:19:32.367Z,11.93
2019-04-30T14:22:00.803Z,10.98
2019-04-30T14:24:29.198Z,12.43
2019-04-30T14:27:01.324Z,11.10
2019-04-30T14:29:30.208Z,11.12
2019-04-30T14:31:59.607Z,12.57
2019-04-30T14:34:28.709Z,13.05
2019-04-30T14:36:59.180Z,12.00
2019-04-30T14:39:29.237Z,11.83
2019-04-30T14:42:02.287Z,11.15
2019-04-30T14:44:33.521Z,11.90
2019-04-30T14:47:11.909Z,11.43
2019-04-30T14:49:41.501Z,12.07
2019-04-30T14:52:11.227Z,12.10
2019-04-30T14:54:41.364Z,12.45
2019-04-30T14:57:13.193Z,12.20
2019-04-30T14:59:49.513Z,12.68
2019-04-30T15:02:34.944Z,11.53
2019-04-30T15:05:04.538Z,11.97
2019-04-30T15:07:34.038Z,11.90
2019-04-30T15:10:02.707Z,11.83
2019-04-30T15:12:31.111Z,12.13
2019-04-30T15:14:59.521Z,12.03
2019-04-30T15:17:27.962Z,12.15
2019-04-30T15:19:58.786Z,12.18
2019-04-30T15:22:29.094Z,11.65
2019-04-30T15:25:00.403Z,12.05
2019-04-30T15:27:29.027Z,12.73
2019-04-30T15:29:57.572Z,24.30
2019-04-30T15:32:26.030Z,26.80
2019-04-30T15:34:55.507Z,23.62
2019-04-30T15:37:24.144Z,26.35
2019-04-30T15:39:52.566Z,29.12
2019-04-30T15:42:23.783Z,28.75
2019-04-30T15:44:52.218Z,28.25
2019-04-30T15:47:22.461Z,27.80
2019-04-30T15:49:50.925Z,28.87
2019-04-30T15:52:22.881Z,27.30
2019-04-30T15:54:51.355Z,28.15
2019-04-30T15:57:23.453Z,28.83
2019-04-30T15:59:51.927Z,26.07
2019-04-30T16:02:29.079Z,26.35
2019-04-30T16:05:17.615Z,24.90
2019-04-30T16:07:49.218Z,24.40
2019-04-30T16:10:23.606Z,22.07
2019-04-30T16:12:53.654Z,20.40
2019-04-30T16:15:22.103Z,19.65
2019-04-30T16:17:52.168Z,18.98
2019-04-30T16:20:24.203Z,17.27
2019-04-30T16:22:52.735Z,18.60
2019-04-30T16:25:21.175Z,18.87
2019-04-30T16:27:49.619Z,20.48
2019-04-30T16:30:19.544Z,18.95
2019-04-30T16:32:50.485Z,19.42
2019-04-30T16:35:21.017Z,20.70
2019-04-30T16:37:49.703Z,22.90
2019-04-30T16:40:19.009Z,22.85
2019-04-30T16:42:48.983Z,24.63
2019-04-30T16:45:19.452Z,22.98
2019-04-30T16:47:48.066Z,23.22
2019-04-30T16:50:18.703Z,23.87
2019-04-30T16:52:46.968Z,24.95
2019-04-30T16:55:15.484Z,22.98
2019-04-30T16:57:43.898Z,22.85
2019-04-30T17:00:15.486Z,24.45
2019-04-30T17:02:46.534Z,22.77
2019-04-30T17:05:23.137Z,23.57
2019-04-30T17:08:05.194Z,23.87
2019-04-30T17:10:39.385Z,24.45
2019-04-30T17:13:25.768Z,23.65
2019-04-30T17:15:55.825Z,23.73
2019-04-30T17:18:24.230Z,24.50
2019-04-30T17:20:55.128Z,22.60
2019-04-30T17:23:23.609Z,23.55
2019-04-30T17:25:52.042Z,20.65
2019-04-30T17:28:20.456Z,21.87
2019-04-30T17:30:51.408Z,22.93
2019-04-30T17:33:19.817Z,22.40
2019-04-30T17:35:49.880Z,21.37
2019-04-30T17:38:18.452Z,19.60
2019-04-30T17:40:49.478Z,19.85
2019-04-30T17:43:17.012Z,20.85
2019-04-30T17:45:45.435Z,22.37
2019-04-30T17:48:13.875Z,20.87
2019-04-30T17:50:42.305Z,20.52
2019-04-30T17:53:10.704Z,20.72
2019-04-30T17:55:39.266Z,19.40
2019-04-30T17:58:09.567Z,18.52
2019-04-30T18:00:39.632Z,19.23
2019-04-30T18:03:08.864Z,21.48
2019-04-30T18:05:39.130Z,23.57
2019-04-30T18:08:07.910Z,27.13
2019-04-30T18:10:43.399Z,31.35
2019-04-30T18:13:11.892Z,32.35
2019-04-30T18:15:42.776Z,33.98
2019-04-30T18:18:18.672Z,32.60
2019-04-30T18:20:50.067Z,34.13
2019-04-30T18:23:36.101Z,36.10
2019-04-30T18:26:08.833Z,36.83
2019-04-30T18:28:37.237Z,36.50
2019-04-30T18:31:08.855Z,36.33
2019-04-30T18:33:40.330Z,38.47
2019-04-30T18:36:09.590Z,37.17
2019-04-30T18:38:39.197Z,36.60
2019-04-30T18:41:09.470Z,35.85
2019-04-30T18:43:40.351Z,34.92
2019-04-30T18:46:10.604Z,37.13
2019-04-30T18:48:39.352Z,38.00
2019-04-30T18:51:23.732Z,37.58
2019-04-30T18:53:39.732Z,36.65
2019-04-30T18:56:13.928Z,36.93
2019-04-30T18:58:56.013Z,37.55
2019-04-30T19:01:43.040Z,36.80
2019-04-30T19:04:02.031Z,37.67
2019-04-30T19:06:45.358Z,35.75
2019-04-30T19:09:16.078Z,37.73
2019-04-30T19:11:51.202Z,37.08
2019-04-30T19:14:21.255Z,36.88
2019-04-30T19:17:02.530Z,39.42
2019-04-30T19:19:49.235Z,38.78
2019-04-30T19:22:18.704Z,38.10
2019-04-30T19:24:56.125Z,40.28
2019-04-30T19:27:24.819Z,40.80
2019-04-30T19:29:53.768Z,40.78
2019-04-30T19:32:24.496Z,38.58
2019-04-30T19:34:53.087Z,43.35
2019-04-30T19:37:21.778Z,41.98
2019-04-30T19:39:51.113Z,40.90
2019-04-30T19:42:22.028Z,40.52
2019-04-30T19:44:58.982Z,41.35
2019-04-30T19:47:30.689Z,42.07
2019-04-30T19:50:14.112Z,41.90
2019-04-30T19:52:44.073Z,44.27
2019-04-30T19:55:15.392Z,46.10
2019-04-30T19:57:48.378Z,45.70
2019-04-30T20:00:17.298Z,45.52
2019-04-30T20:02:46.230Z,48.05
2019-04-30T20:05:14.717Z,49.77
2019-04-30T20:07:44.702Z,51.42
2019-04-30T20:10:13.452Z,49.53
2019-04-30T20:12:42.089Z,55.70
2019-04-30T20:15:19.353Z,53.68
2019-04-30T20:17:41.130Z,56.88
2019-04-30T20:20:09.902Z,55.45
2019-04-30T20:22:38.927Z,59.25
2019-04-30T20:25:12.071Z,58.20
2019-04-30T20:27:39.776Z,59.95
2019-04-30T20:30:14.983Z,61.30
2019-04-30T20:32:42.720Z,59.30
2019-04-30T20:35:11.249Z,57.23
2019-04-30T20:37:59.460Z,59.42
2019-04-30T20:40:42.646Z,57.78
2019-04-30T20:43:57.752Z,57.70
2019-04-30T20:46:34.817Z,59.60
2019-04-30T20:48:59.639Z,59.48
2019-04-30T20:51:29.104Z,59.50
2019-04-30T20:53:59.203Z,60.23
2019-04-30T20:56:29.143Z,58.03
2019-04-30T20:59:02.355Z,60.25
2019-04-30T21:01:29.381Z,59.95
2019-04-30T21:03:58.057Z,59.73
2019-04-30T21:06:26.451Z,63.67
2019-04-30T21:08:54.927Z,62.38
2019-04-30T21:11:23.443Z,63.03
2019-04-30T21:13:51.859Z,65.32
2019-04-30T21:16:20.281Z,71.20
2019-04-30T21:18:52.541Z,72.45
2019-04-30T21:21:22.042Z,77.10
2019-04-30T21:23:50.495Z,79.15
2019-04-30T21:26:19.633Z,81.60
2019-04-30T21:28:49.459Z,80.47
2019-04-30T21:31:37.415Z,77.50
2019-04-30T21:34:13.464Z,79.12
2019-04-30T21:36:41.886Z,81.65
2019-04-30T21:39:10.921Z,84.52
2019-04-30T21:41:39.607Z,83.20
2019-04-30T21:44:08.131Z,86.42
2019-04-30T21:46:40.374Z,85.53
2019-04-30T21:49:08.974Z,87.92
2019-04-30T21:51:39.971Z,91.10
2019-04-30T21:54:07.711Z,91.12
2019-04-30T21:56:36.839Z,89.92
2019-04-30T21:59:07.988Z,88.58
2019-04-30T22:01:35.627Z,89.13
2019-04-30T22:04:04.294Z,87.70
2019-04-30T22:06:32.726Z,85.03
2019-04-30T22:09:02.631Z,85.97
2019-04-30T22:11:31.041Z,85.50
2019-04-30T22:14:09.919Z,86.85
2019-04-30T22:16:40.858Z,83.55
2019-04-30T22:19:09.444Z,85.07
2019-04-30T22:21:39.594Z,83.52
2019-04-30T22:24:08.170Z,83.78
2019-04-30T22:26:38.033Z,84.55
2019-04-30T22:29:06.480Z,84.25
2019-04-30T22:31:34.944Z,82.97
2019-04-30T22:34:06.081Z,82.42
2019-04-30T22:36:36.176Z,84.25
2019-04-30T22:39:24.865Z,80.87
2019-04-30T22:42:01.417Z,80.75
2019-04-30T22:44:29.899Z,80.03
2019-04-30T22:47:00.261Z,79.55
2019-04-30T22:49:28.441Z,80.53
2019-04-30T22:51:56.918Z,77.97
2019-04-30T22:54:25.400Z,77.08
2019-04-30T22:56:53.840Z,75.57
2019-04-30T22:59:22.720Z,74.62
2019-04-30T23:02:01.581Z,75.05
2019-04-30T23:04:31.638Z,75.03
2019-04-30T23:07:00.056Z,70.05
2019-04-30T23:09:28.692Z,71.20
2019-04-30T23:11:57.124Z,70.78
2019-04-30T23:14:25.568Z,71.90
2019-04-30T23:16:53.977Z,71.33
2019-04-30T23:19:23.682Z,70.40
2019-04-30T23:21:52.110Z,70.92
2019-04-30T23:24:20.549Z,67.50
2019-04-30T23:26:48.986Z,63.37
2019-04-30T23:29:17.475Z,66.42
2019-04-30T23:31:48.356Z,61.35
2019-04-30T23:34:18.308Z,64.95
2019-04-30T23:36:47.484Z,63.73
2019-04-30T23:39:16.052Z,62.95
2019-04-30T23:41:44.466Z,60.35
2019-04-30T23:44:13.523Z,61.63
2019-04-30T23:46:41.973Z,58.10
2019-04-30T23:49:10.429Z,57.48
2019-04-30T23:51:38.948Z,56.20
2019-04-30T23:54:07.378Z,59.10
2019-04-30T23:56:35.792Z,52.80
2019-04-30T23:59:04.298Z,55.52
